< < Back
Terminal Aerodrome Forecast


Current Version              Previous Versions:   1  2  3  4  5  6  7  8  9  

Terminal Aerodrome Forecast

865
FTUS42 KMLB 220800 AAA
TAFDAB
TAF AMD
KDAB 220815Z 2208/2306 30004KT 5SM BR FEW002 BKN250
      TEMPO 2209/2212 2SM BR BKN002
     FM221400 01010KT P6SM FEW030 BKN250
     FM221800 02012G18KT P6SM FEW035 SCT250
     FM230000 01005KT P6SM SCT250=

Latest METAR

909
SAUS80 KWBC 221000 RRA
MTRDAB
METAR KDAB 220953Z 31005KT 8SM FEW250 18/18 A2995 RMK AO2 SLP140
T01830178


USA.gov is the U.S. government's official web portal to all federal, state and local government web resources and services.